createdAt,value
2022-12-01T00:01:06.466Z,26.90
2022-12-01T00:03:33.561Z,26.42
2022-12-01T00:06:17.260Z,27.42
2022-12-01T00:09:05.716Z,23.63
2022-12-01T00:11:33.365Z,27.50
2022-12-01T00:13:59.983Z,27.17
2022-12-01T00:16:26.527Z,28.23
2022-12-01T00:18:53.881Z,28.80
2022-12-01T00:21:22.330Z,27.15
2022-12-01T00:23:51.190Z,26.95
2022-12-01T00:26:19.204Z,24.80
2022-12-01T00:28:53.851Z,22.27
2022-12-01T00:31:20.908Z,22.98
2022-12-01T00:33:47.614Z,26.98
2022-12-01T00:36:14.149Z,26.50
2022-12-01T00:38:40.653Z,27.08
2022-12-01T00:41:07.495Z,25.88
2022-12-01T00:43:33.950Z,25.55
2022-12-01T00:46:00.504Z,29.30
2022-12-01T00:48:27.148Z,26.88
2022-12-01T00:50:54.629Z,27.55
2022-12-01T00:53:21.910Z,31.63
2022-12-01T00:55:48.492Z,27.23
2022-12-01T00:58:15.024Z,30.42
2022-12-01T01:00:42.833Z,29.73
2022-12-01T01:03:10.580Z,30.55
2022-12-01T01:05:41.721Z,35.35
2022-12-01T01:08:14.837Z,40.65
2022-12-01T01:10:43.197Z,36.88
2022-12-01T01:13:11.962Z,39.53
2022-12-01T01:15:38.876Z,47.90
2022-12-01T01:18:06.142Z,42.83
2022-12-01T01:20:33.170Z,43.45
2022-12-01T01:22:59.656Z,40.95
2022-12-01T01:25:26.208Z,47.30
2022-12-01T01:27:52.717Z,46.33
2022-12-01T01:30:19.713Z,46.58
2022-12-01T01:32:46.150Z,43.97
2022-12-01T01:35:12.703Z,32.72
2022-12-01T01:37:39.527Z,44.67
2022-12-01T01:40:06.652Z,46.05
2022-12-01T01:42:33.112Z,53.60
2022-12-01T01:44:59.617Z,47.75
2022-12-01T01:47:36.681Z,48.83
2022-12-01T01:50:09.718Z,49.17
2022-12-01T01:52:40.611Z,50.42
2022-12-01T01:55:07.815Z,55.25
2022-12-01T01:57:34.939Z,51.38
2022-12-01T02:00:07.868Z,54.92
2022-12-01T02:02:40.833Z,48.40
2022-12-01T02:05:11.112Z,55.88
2022-12-01T02:07:42.016Z,51.90
2022-12-01T02:10:13.117Z,56.42
2022-12-01T02:12:50.296Z,47.75
2022-12-01T02:15:46.104Z,53.25
2022-12-01T02:18:30.577Z,48.00
2022-12-01T02:21:18.846Z,48.10
2022-12-01T02:23:51.058Z,52.85
2022-12-01T02:26:45.434Z,56.85
2022-12-01T02:29:42.898Z,43.28
2022-12-01T02:32:51.055Z,45.22
2022-12-01T02:35:47.220Z,51.40
2022-12-01T02:38:29.142Z,52.42
2022-12-01T02:41:06.254Z,48.97
2022-12-01T02:43:57.053Z,56.40
2022-12-01T02:46:34.202Z,53.75
2022-12-01T02:49:07.570Z,49.50
2022-12-01T02:51:37.414Z,48.65
2022-12-01T02:54:05.892Z,57.97
2022-12-01T02:56:32.302Z,46.50
2022-12-01T02:58:58.769Z,42.67
2022-12-01T03:01:59.267Z,47.53
2022-12-01T03:04:57.599Z,42.63
2022-12-01T03:07:39.268Z,39.70
2022-12-01T03:13:07.452Z,47.40
2022-12-01T03:15:52.251Z,47.53
2022-12-01T03:18:27.843Z,46.13
2022-12-01T03:23:38.524Z,50.65
2022-12-01T03:26:09.400Z,40.63
2022-12-01T03:28:55.609Z,49.60
2022-12-01T03:31:32.527Z,52.70
2022-12-01T03:34:05.087Z,48.15
2022-12-01T03:37:09.513Z,53.70
2022-12-01T03:39:38.997Z,45.15
2022-12-01T03:42:17.817Z,48.97
2022-12-01T03:44:49.650Z,43.17
2022-12-01T03:47:29.481Z,39.80
2022-12-01T03:49:56.817Z,36.75
2022-12-01T03:52:42.177Z,39.75
2022-12-01T03:55:20.468Z,41.38
2022-12-01T03:57:54.120Z,36.13
2022-12-01T04:00:21.563Z,28.92
2022-12-01T04:02:48.933Z,37.40
2022-12-01T04:05:15.635Z,30.42
2022-12-01T04:07:42.145Z,29.85
2022-12-01T04:10:08.982Z,31.33
2022-12-01T04:12:35.555Z,34.42
2022-12-01T04:15:08.128Z,33.85
2022-12-01T04:17:34.805Z,31.35
2022-12-01T04:20:01.782Z,32.30
2022-12-01T04:22:28.359Z,30.85
2022-12-01T04:24:54.812Z,31.48
2022-12-01T04:27:21.432Z,31.38
2022-12-01T04:29:48.161Z,30.88
2022-12-01T04:32:15.187Z,33.58
2022-12-01T04:34:42.089Z,29.42
2022-12-01T04:37:09.912Z,28.00
2022-12-01T04:39:36.595Z,23.02
2022-12-01T04:42:03.237Z,23.80
2022-12-01T04:44:34.514Z,33.58
2022-12-01T04:47:02.199Z,33.58
2022-12-01T04:49:28.744Z,31.10
2022-12-01T04:51:55.331Z,34.78
2022-12-01T04:54:22.277Z,34.03
2022-12-01T04:56:48.898Z,38.72
2022-12-01T04:59:15.379Z,27.80
2022-12-01T05:01:41.948Z,39.85
2022-12-01T05:04:11.784Z,39.22
2022-12-01T05:06:38.204Z,33.88
2022-12-01T05:09:04.730Z,36.55
2022-12-01T05:11:32.616Z,42.90
2022-12-01T05:13:59.390Z,46.75
2022-12-01T05:16:28.874Z,47.50
2022-12-01T05:19:16.154Z,45.75
2022-12-01T05:21:44.420Z,42.53
2022-12-01T05:24:12.384Z,48.83
2022-12-01T05:26:39.325Z,45.53
2022-12-01T05:29:06.037Z,45.42
2022-12-01T05:31:32.864Z,39.10
2022-12-01T05:33:59.301Z,38.60
2022-12-01T05:36:25.804Z,38.92
2022-12-01T05:38:52.504Z,47.65
2022-12-01T05:41:19.007Z,46.65
2022-12-01T05:43:45.454Z,36.88
2022-12-01T05:46:12.019Z,40.78
2022-12-01T05:48:38.506Z,40.58
2022-12-01T05:51:10.029Z,42.83
2022-12-01T05:53:36.884Z,43.05
2022-12-01T05:56:04.102Z,40.97
2022-12-01T05:58:30.698Z,35.28
2022-12-01T06:00:57.170Z,41.38
2022-12-01T06:03:23.643Z,40.22
2022-12-01T06:05:50.953Z,42.15
2022-12-01T06:08:17.573Z,37.25
2022-12-01T06:10:44.400Z,30.42
2022-12-01T06:13:10.836Z,41.58
2022-12-01T06:15:37.456Z,34.13
2022-12-01T06:18:04.162Z,35.25
2022-12-01T06:20:30.604Z,31.17
2022-12-01T06:22:57.071Z,34.55
2022-12-01T06:25:23.501Z,40.88
2022-12-01T06:27:49.947Z,36.90
2022-12-01T06:30:16.621Z,33.67
2022-12-01T06:32:43.033Z,32.70
2022-12-01T06:35:09.533Z,33.15
2022-12-01T06:37:36.005Z,38.17
2022-12-01T06:40:02.426Z,30.45
2022-12-01T06:42:30.579Z,29.73
2022-12-01T06:44:57.141Z,33.85
2022-12-01T06:47:23.660Z,33.80
2022-12-01T06:49:50.337Z,32.30
2022-12-01T06:52:17.050Z,31.05
2022-12-01T06:54:43.506Z,34.85
2022-12-01T06:57:10.322Z,33.25
2022-12-01T06:59:37.041Z,42.80
2022-12-01T07:02:03.866Z,37.83
2022-12-01T07:04:31.035Z,33.10
2022-12-01T07:06:57.503Z,31.45
2022-12-01T07:09:23.946Z,34.05
2022-12-01T07:11:50.434Z,34.80
2022-12-01T07:14:24.986Z,39.42
2022-12-01T07:16:51.638Z,40.45
2022-12-01T07:19:18.216Z,35.20
2022-12-01T07:21:45.084Z,36.72
2022-12-01T07:24:14.690Z,45.97
2022-12-01T07:26:42.175Z,41.10
2022-12-01T07:29:10.904Z,38.15
2022-12-01T07:31:38.537Z,38.03
2022-12-01T07:34:06.567Z,36.13
2022-12-01T07:36:33.530Z,41.40
2022-12-01T07:39:04.281Z,40.58
2022-12-01T07:41:30.824Z,42.45
2022-12-01T07:43:57.540Z,40.25
2022-12-01T07:46:26.329Z,45.67
2022-12-01T07:48:54.389Z,42.20
2022-12-01T07:51:21.858Z,39.38
2022-12-01T07:53:49.836Z,46.38
2022-12-01T07:56:18.218Z,45.60
2022-12-01T07:58:44.921Z,40.00
2022-12-01T08:01:17.897Z,52.25
2022-12-01T08:03:44.998Z,44.25
2022-12-01T08:06:12.261Z,38.42
2022-12-01T08:08:40.960Z,37.08
2022-12-01T08:11:19.606Z,46.70
2022-12-01T08:13:46.241Z,42.92
2022-12-01T08:16:15.384Z,45.50
2022-12-01T08:18:43.346Z,45.35
2022-12-01T08:21:12.542Z,40.78
2022-12-01T08:23:39.625Z,41.28
2022-12-01T08:26:09.338Z,40.17
2022-12-01T08:28:36.932Z,40.10
2022-12-01T08:31:20.663Z,35.75
2022-12-01T08:33:48.761Z,36.78
2022-12-01T08:36:15.717Z,46.10
2022-12-01T08:38:46.587Z,46.90
2022-12-01T08:41:14.257Z,39.88
2022-12-01T08:44:00.288Z,43.70
2022-12-01T08:46:35.645Z,40.05
2022-12-01T08:49:04.119Z,35.55
2022-12-01T08:51:31.813Z,43.15
2022-12-01T08:53:59.639Z,43.83
2022-12-01T08:56:30.829Z,46.88
2022-12-01T08:58:58.126Z,39.17
2022-12-01T09:01:26.153Z,40.63
2022-12-01T09:04:09.026Z,45.03
2022-12-01T09:06:42.337Z,42.63
2022-12-01T09:09:10.965Z,43.78
2022-12-01T09:11:37.875Z,44.38
2022-12-01T09:14:04.788Z,42.97
2022-12-01T09:16:32.257Z,39.20
2022-12-01T09:18:58.997Z,40.25
2022-12-01T09:21:30.736Z,41.33
2022-12-01T09:23:57.688Z,42.65
2022-12-01T09:26:24.991Z,44.83
2022-12-01T09:29:01.653Z,47.50
2022-12-01T09:31:29.036Z,37.97
2022-12-01T09:34:00.265Z,33.10
2022-12-01T09:36:30.907Z,34.33
2022-12-01T09:38:58.333Z,38.80
2022-12-01T09:41:38.743Z,45.80
2022-12-01T09:44:15.233Z,45.65
2022-12-01T09:46:49.908Z,47.90
2022-12-01T09:49:24.603Z,38.78
2022-12-01T09:51:53.832Z,41.55
2022-12-01T09:54:20.772Z,38.83
2022-12-01T09:56:53.306Z,36.28
2022-12-01T09:59:25.257Z,30.92
2022-12-01T10:02:00.680Z,39.40
2022-12-01T10:07:17.318Z,29.17
2022-12-01T10:09:50.319Z,32.45
2022-12-01T10:12:20.175Z,33.55
2022-12-01T10:14:48.885Z,34.05
2022-12-01T10:17:31.025Z,30.52
2022-12-01T10:20:22.853Z,27.55
2022-12-01T10:23:13.333Z,26.70
2022-12-01T10:25:57.270Z,27.58
2022-12-01T10:28:41.810Z,29.20
2022-12-01T10:31:34.686Z,26.67
2022-12-01T10:34:11.310Z,29.38
2022-12-01T10:36:37.896Z,25.92
2022-12-01T10:39:07.055Z,31.02
2022-12-01T10:41:37.753Z,30.92
2022-12-01T10:44:07.179Z,30.08
2022-12-01T10:46:52.501Z,28.88
2022-12-01T10:49:20.351Z,29.60
2022-12-01T10:51:53.725Z,31.48
2022-12-01T10:54:22.463Z,33.25
2022-12-01T10:56:55.098Z,29.58
2022-12-01T10:59:44.379Z,34.88
2022-12-01T11:02:21.770Z,32.85
2022-12-01T11:04:55.969Z,35.13
2022-12-01T11:07:44.275Z,33.63
2022-12-01T11:10:24.342Z,32.75
2022-12-01T11:13:07.142Z,29.40
2022-12-01T11:15:40.020Z,30.75
2022-12-01T11:18:29.239Z,35.38
2022-12-01T11:21:14.576Z,32.40
2022-12-01T11:23:49.963Z,29.85
2022-12-01T11:29:00.504Z,28.90
2022-12-01T11:31:39.021Z,34.08
2022-12-01T11:34:14.879Z,28.52
2022-12-01T11:36:47.617Z,32.17
2022-12-01T11:39:24.692Z,25.80
2022-12-01T11:41:56.931Z,26.48
2022-12-01T11:47:23.295Z,26.75
2022-12-01T11:50:22.767Z,27.10
2022-12-01T11:52:49.345Z,25.75
2022-12-01T11:55:15.846Z,20.88
2022-12-01T11:57:48.223Z,23.85
2022-12-01T12:00:22.039Z,22.08
2022-12-01T12:02:51.577Z,25.77
2022-12-01T12:05:45.974Z,25.40
2022-12-01T12:08:15.319Z,26.45
2022-12-01T12:10:41.920Z,27.55
2022-12-01T12:13:11.744Z,21.52
2022-12-01T12:16:03.316Z,27.52
2022-12-01T12:18:35.840Z,24.63
2022-12-01T12:21:14.485Z,28.80
2022-12-01T12:23:51.313Z,27.33
2022-12-01T12:26:28.520Z,24.70
2022-12-01T12:29:14.085Z,25.48
2022-12-01T12:32:02.818Z,27.27
2022-12-01T12:34:40.847Z,25.83
2022-12-01T12:37:17.689Z,29.27
2022-12-01T12:39:47.336Z,29.65
2022-12-01T12:42:43.075Z,28.48
2022-12-01T12:45:31.301Z,28.00
2022-12-01T12:48:24.700Z,28.80
2022-12-01T12:50:51.270Z,28.10
2022-12-01T12:53:22.517Z,29.02
2022-12-01T12:55:52.872Z,28.83
2022-12-01T12:58:26.165Z,29.27
2022-12-01T13:01:05.323Z,28.00
2022-12-01T13:03:56.635Z,27.73
2022-12-01T13:06:52.141Z,26.90
2022-12-01T13:09:28.728Z,29.90
2022-12-01T13:12:21.240Z,27.52
2022-12-01T13:15:16.178Z,32.95
2022-12-01T13:17:51.577Z,33.10
2022-12-01T13:22:48.176Z,30.02
2022-12-01T13:25:25.706Z,32.00
2022-12-01T13:27:53.320Z,34.30
2022-12-01T13:30:22.730Z,34.45
2022-12-01T13:32:49.948Z,34.20
2022-12-01T13:35:22.645Z,33.17
2022-12-01T13:37:49.538Z,36.90
2022-12-01T13:40:27.258Z,33.30
2022-12-01T13:43:08.938Z,36.08
2022-12-01T13:45:40.262Z,28.52
2022-12-01T13:48:27.514Z,35.80
2022-12-01T13:51:02.588Z,37.53
2022-12-01T13:53:37.285Z,33.95
2022-12-01T13:56:06.192Z,36.53
2022-12-01T13:58:32.982Z,28.48
2022-12-01T14:01:22.161Z,35.45
2022-12-01T14:03:56.888Z,39.83
2022-12-01T14:06:36.186Z,34.20
2022-12-01T14:09:16.717Z,31.25
2022-12-01T14:12:06.084Z,36.58
2022-12-01T14:14:39.417Z,31.27
2022-12-01T14:17:06.842Z,34.58
2022-12-01T14:19:39.222Z,28.92
2022-12-01T14:22:33.056Z,36.22
2022-12-01T14:25:00.339Z,34.33
2022-12-01T14:27:42.600Z,35.80
2022-12-01T14:30:50.041Z,35.80
2022-12-01T14:33:47.588Z,36.22
2022-12-01T14:36:23.360Z,37.70
2022-12-01T14:39:01.757Z,40.35
2022-12-01T14:41:55.114Z,35.40
2022-12-01T14:44:51.562Z,41.47
2022-12-01T14:47:27.609Z,39.35
2022-12-01T14:50:12.341Z,39.20
2022-12-01T14:52:45.207Z,43.67
2022-12-01T14:55:40.720Z,38.38
2022-12-01T14:58:16.506Z,42.67
2022-12-01T15:00:55.216Z,40.83
2022-12-01T15:03:28.957Z,39.85
2022-12-01T15:05:58.626Z,39.35
2022-12-01T15:08:58.412Z,42.50
2022-12-01T15:11:25.796Z,42.40
2022-12-01T15:13:56.826Z,43.50
2022-12-01T15:16:28.434Z,38.20
2022-12-01T15:18:55.698Z,43.65
2022-12-01T15:21:24.207Z,44.42
2022-12-01T15:24:01.936Z,47.65
2022-12-01T15:26:34.211Z,46.03
2022-12-01T15:29:25.454Z,40.08
2022-12-01T15:31:58.026Z,43.30
2022-12-01T15:34:45.446Z,41.20
2022-12-01T15:37:16.013Z,44.60
2022-12-01T15:39:49.577Z,25.83
2022-12-01T15:42:25.479Z,42.67
2022-12-01T15:45:05.209Z,48.65
2022-12-01T15:47:49.846Z,40.50
2022-12-01T15:50:29.889Z,45.38
2022-12-01T15:53:01.424Z,38.47
2022-12-01T15:55:34.996Z,40.08
2022-12-01T15:58:06.583Z,43.90
2022-12-01T16:00:33.627Z,41.70
2022-12-01T16:03:02.084Z,42.97
2022-12-01T16:05:32.714Z,46.13
2022-12-01T16:08:17.628Z,47.67
2022-12-01T16:10:44.605Z,38.60
2022-12-01T16:13:59.894Z,48.58
2022-12-01T16:16:44.453Z,48.70
2022-12-01T16:19:11.136Z,46.85
2022-12-01T16:21:48.187Z,52.53
2022-12-01T16:24:29.437Z,48.08
2022-12-01T16:26:55.984Z,51.05
2022-12-01T16:29:25.141Z,50.75
2022-12-01T16:32:22.398Z,53.60
2022-12-01T16:34:47.701Z,56.03
2022-12-01T16:37:15.397Z,47.38
2022-12-01T16:39:42.181Z,50.35
2022-12-01T16:42:16.703Z,52.13
2022-12-01T16:44:46.019Z,43.67
2022-12-01T16:47:15.514Z,42.63
2022-12-01T16:49:42.125Z,50.03
2022-12-01T16:52:36.558Z,49.38
2022-12-01T16:54:55.600Z,53.30
2022-12-01T16:57:22.369Z,52.55
2022-12-01T16:59:49.174Z,46.90
2022-12-01T17:02:16.088Z,47.70
2022-12-01T17:04:42.839Z,52.42
2022-12-01T17:07:09.644Z,47.13
2022-12-01T17:09:36.579Z,39.50
2022-12-01T17:12:03.163Z,46.63
2022-12-01T17:14:29.803Z,39.72
2022-12-01T17:16:58.555Z,50.50
2022-12-01T17:19:25.380Z,41.60
2022-12-01T17:21:53.016Z,44.03
2022-12-01T17:24:19.713Z,41.70
2022-12-01T17:26:46.381Z,46.22
2022-12-01T17:29:12.938Z,42.03
2022-12-01T17:31:39.852Z,46.33
2022-12-01T17:34:06.446Z,47.42
2022-12-01T17:36:33.162Z,48.75
2022-12-01T17:38:59.930Z,43.88
2022-12-01T17:41:32.259Z,44.75
2022-12-01T17:43:59.268Z,45.38
2022-12-01T17:46:26.045Z,53.67
2022-12-01T17:48:52.733Z,44.90
2022-12-01T17:51:19.283Z,53.53
2022-12-01T17:53:46.151Z,64.32
2022-12-01T17:56:15.348Z,47.75
2022-12-01T17:58:42.705Z,48.72
2022-12-01T18:01:17.531Z,47.47
2022-12-01T18:03:45.050Z,42.60
2022-12-01T18:06:32.209Z,37.20
2022-12-01T18:09:00.456Z,41.45
2022-12-01T18:11:27.949Z,40.42
2022-12-01T18:13:54.931Z,48.78
2022-12-01T18:16:28.173Z,43.60
2022-12-01T18:18:56.636Z,43.97
2022-12-01T18:21:25.099Z,47.70
2022-12-01T18:23:58.220Z,48.53
2022-12-01T18:26:26.734Z,50.17
2022-12-01T18:29:01.623Z,47.85
2022-12-01T18:31:29.934Z,47.28
2022-12-01T18:34:05.476Z,46.25
2022-12-01T18:39:01.560Z,48.80
2022-12-01T18:41:28.316Z,52.50
2022-12-01T18:43:54.842Z,49.40
2022-12-01T18:46:22.113Z,47.28
2022-12-01T18:48:52.228Z,50.83
2022-12-01T18:51:20.201Z,44.53
2022-12-01T18:53:47.468Z,42.33
2022-12-01T18:56:15.468Z,47.13
2022-12-01T18:58:42.888Z,35.25
2022-12-01T19:01:21.487Z,42.08
2022-12-01T19:03:48.748Z,39.40
2022-12-01T19:06:16.226Z,40.50
2022-12-01T19:08:43.317Z,34.33
2022-12-01T19:11:10.041Z,39.58
2022-12-01T19:13:36.989Z,35.60
2022-12-01T19:16:09.249Z,40.47
2022-12-01T19:18:37.565Z,43.35
2022-12-01T19:21:05.237Z,39.53
2022-12-01T19:23:32.355Z,39.47
2022-12-01T19:26:02.406Z,41.08
2022-12-01T19:28:29.295Z,39.00
2022-12-01T19:30:56.259Z,39.33
2022-12-01T19:33:23.094Z,35.38
2022-12-01T19:35:50.008Z,36.47
2022-12-01T19:38:17.015Z,43.88
2022-12-01T19:40:44.026Z,41.35
2022-12-01T19:43:10.708Z,40.85
2022-12-01T19:45:38.802Z,45.75
2022-12-01T19:48:06.467Z,40.35
2022-12-01T19:50:36.668Z,45.17
2022-12-01T19:53:04.361Z,47.47
2022-12-01T19:55:31.003Z,43.00
2022-12-01T19:57:57.864Z,45.00
2022-12-01T20:00:26.381Z,45.58
2022-12-01T20:02:54.386Z,48.17
2022-12-01T20:05:20.956Z,49.90
2022-12-01T20:07:47.904Z,49.75
2022-12-01T20:10:19.975Z,45.20
2022-12-01T20:12:47.743Z,51.38
2022-12-01T20:15:15.635Z,45.50
2022-12-01T20:17:42.535Z,53.70
2022-12-01T20:20:10.697Z,50.75
2022-12-01T20:22:38.651Z,47.45
2022-12-01T20:25:06.682Z,46.40
2022-12-01T20:27:33.746Z,49.40
2022-12-01T20:30:00.857Z,53.20
2022-12-01T20:32:27.763Z,44.38
2022-12-01T20:34:54.553Z,35.97
2022-12-01T20:37:21.325Z,52.22
2022-12-01T20:39:48.064Z,45.08
2022-12-01T20:42:14.804Z,52.15
2022-12-01T20:44:42.063Z,46.10
2022-12-01T20:47:08.738Z,47.70
2022-12-01T20:49:35.365Z,43.92
2022-12-01T20:52:02.089Z,46.25
2022-12-01T20:54:30.059Z,49.03
2022-12-01T20:56:57.731Z,44.60
2022-12-01T20:59:26.254Z,46.10
2022-12-01T21:01:52.986Z,43.33
2022-12-01T21:04:21.539Z,40.13
2022-12-01T21:06:50.193Z,24.85
2022-12-01T21:09:18.087Z,40.95
2022-12-01T21:12:08.846Z,40.50
2022-12-01T21:14:45.746Z,24.60
2022-12-01T21:17:36.929Z,34.67
2022-12-01T21:20:21.576Z,29.63
2022-12-01T21:22:50.606Z,37.20
2022-12-01T21:25:24.471Z,30.20
2022-12-01T21:27:51.720Z,31.85
2022-12-01T21:30:21.897Z,36.65
2022-12-01T21:32:49.668Z,31.13
2022-12-01T21:35:25.038Z,34.13
2022-12-01T21:37:58.222Z,32.72
2022-12-01T21:40:25.981Z,31.35
2022-12-01T21:42:53.087Z,32.67
2022-12-01T21:45:26.943Z,35.63
2022-12-01T21:47:57.317Z,29.00
2022-12-01T21:50:25.395Z,38.97
2022-12-01T21:52:52.105Z,27.85
2022-12-01T21:55:18.502Z,31.63
2022-12-01T21:57:47.417Z,32.78
2022-12-01T22:00:22.857Z,36.05
2022-12-01T22:02:51.948Z,32.95
2022-12-01T22:05:35.602Z,38.03
2022-12-01T22:08:25.685Z,37.53
2022-12-01T22:10:52.655Z,38.25
2022-12-01T22:13:23.489Z,39.85
2022-12-01T22:15:52.421Z,38.08
2022-12-01T22:18:37.683Z,39.78
2022-12-01T22:21:22.366Z,42.50
2022-12-01T22:24:10.631Z,32.03
2022-12-01T22:26:38.946Z,44.05
2022-12-01T22:29:21.402Z,36.30
2022-12-01T22:31:48.152Z,47.58
2022-12-01T22:34:16.441Z,43.72
2022-12-01T22:36:43.119Z,40.58
2022-12-01T22:39:34.158Z,43.60
2022-12-01T22:42:13.376Z,45.92
2022-12-01T22:44:41.521Z,48.35
2022-12-01T22:47:09.872Z,39.72
2022-12-01T22:49:36.659Z,34.17
2022-12-01T22:52:19.276Z,36.20
2022-12-01T22:54:49.404Z,39.80
2022-12-01T22:57:34.959Z,49.97
2022-12-01T23:00:14.235Z,41.15
2022-12-01T23:02:41.310Z,32.85
2022-12-01T23:05:30.030Z,43.97
2022-12-01T23:07:57.496Z,50.78
2022-12-01T23:10:34.427Z,38.17
2022-12-01T23:13:12.975Z,42.45
2022-12-01T23:15:44.126Z,48.63
2022-12-01T23:18:14.283Z,21.95
2022-12-01T23:20:42.677Z,42.38
2022-12-01T23:23:14.637Z,47.58
2022-12-01T23:25:42.013Z,42.10
2022-12-01T23:28:10.666Z,45.90
2022-12-01T23:30:40.039Z,29.63
2022-12-01T23:35:41.596Z,38.20
2022-12-01T23:38:40.648Z,38.40
2022-12-01T23:41:13.776Z,36.78
2022-12-01T23:43:42.952Z,38.75
2022-12-01T23:46:16.699Z,39.72
2022-12-01T23:49:07.234Z,39.38
2022-12-01T23:51:54.658Z,44.90
2022-12-01T23:54:25.282Z,40.88
2022-12-01T23:56:56.984Z,40.95
2022-12-01T23:59:24.008Z,43.58
